ENMLENKB

Guest
Details From ENML - Molde Aro
To ENKB - KVERNBERGET
Flight Number -
Tags generated
Created
Modified
Stats Distance 27 nm / 51 km
Max Altitude 100 ft / 30 m
Waypoints 3
Social Downloads 1
Likes 0
Share VATSIM

Download

Looking for another format? Having issues loading an existing format? Contact us
Advertisement - Login to hide

Notes

Basic altitude profile: - Ascent Rate: 2500ft/min - Ascent Speed: 250kts - Cruise Altitude: 35000ft - Cruise Speed: 420kts - Descent Rate: 1500ft/min - Descent Speed: 250kts Options: - Use NATs: yes - Use PACOTS: yes - Use low airways: yes - Use high airways: yes

Route

ENML KVB ENKB

ID Type Via Altitude Latitude Longitude Leg Dist Tot Dist Heading (true) Name
O ENML APT - 0 ft / 0 m 62.74557˚ 7.26748˚ - 0 nm - Molde Aro
KVB VOR - 100 ft / 30 m 63.11813˚ 7.81054˚ 26 nm 26 nm 33° / 34° KVERNBERGET VOR-DME
O ENKB APT - 0 ft / 0 m 63.11187˚ 7.82453˚ 0 nm 27 nm 135° / 135° KVERNBERGET

Altitude Profile

Advertisement - Login to hide

ENML

Details ICAO ENML (MOL)
Name Molde Aro
Region Norway
Timezone Europe/Oslo (UTC+1.0)
Stats Elevation 10 ft / 3 m (AMSL)
Location 62.745572° 7.267482°
Runways 1
Magnetic Variation 1.716° E

METAR

ENML 161450Z 27007KT 9999 -SHSN SCT006 BKN009 01/M00 Q1007

Decode

TAF

Not found

Departure Runways

ID Width Length Bearing (true) Bearing (mag) Surface Threshold Offset Overrun Length
07 148 ft / 45 m 6,886 ft / 2,099 m 70.96° 69.24° Asphalt 230 ft / 70 m 0 ft / 0 m
25 148 ft / 45 m 6,886 ft / 2,099 m 251.00° 249.28° Asphalt 197 ft / 60 m 0 ft / 0 m

ENKB

Details ICAO ENKB (KSU)
Name KVERNBERGET
Region Norway
Timezone Europe/Oslo (UTC+1.0)
Stats Elevation 204 ft / 62 m (AMSL)
Location 63.111872° 7.824532°
Runways 1
Magnetic Variation 1.985° E

METAR

ENKB 161450Z 32007KT 300V360 6000 -SN VV010 01/M00 Q1006 RMK WIND 745FT 32010KT

Decode

TAF

Not found

Destination Runways

ID Width Length Bearing (true) Bearing (mag) Surface Threshold Offset Overrun Length
07 148 ft / 45 m 6,192 ft / 1,887 m 71.39° 69.40° Asphalt 197 ft / 60 m 0 ft / 0 m
25 148 ft / 45 m 6,192 ft / 1,887 m 251.42° 249.43° Asphalt 263 ft / 80 m 0 ft / 0 m

Approach Navaids

Runway Type Ident Frequency Range Bearing (true) Bearing (mag) Slope Elevation
07 Localiser KB 110.10 MHz 18 nm / 33 km 71.60° 69.62° - 204 ft / 62 m (AMSL)
07 Glidescope KB 110.10 MHz 10 nm / 19 km 71.41° 69.42° 3.00° 204 ft / 62 m (AMSL)

Popular Alternatives